sensor_id;sensor_type;location;lat;lon;timestamp;P1;durP1;ratioP1;P2;durP2;ratioP2
5052;SDS011;2545;50.892;5.740;2023-04-01T00:00:08;4.97;;;1.63;;
5052;SDS011;2545;50.892;5.740;2023-04-01T00:02:34;6.67;;;1.50;;
5052;SDS011;2545;50.892;5.740;2023-04-01T00:05:00;6.10;;;1.80;;
5052;SDS011;2545;50.892;5.740;2023-04-01T00:07:26;9.37;;;1.80;;
5052;SDS011;2545;50.892;5.740;2023-04-01T00:09:51;4.50;;;1.80;;
5052;SDS011;2545;50.892;5.740;2023-04-01T00:12:17;5.90;;;1.57;;
5052;SDS011;2545;50.892;5.740;2023-04-01T00:14:42;4.40;;;2.17;;
5052;SDS011;2545;50.892;5.740;2023-04-01T00:17:08;3.30;;;1.30;;
5052;SDS011;2545;50.892;5.740;2023-04-01T00:19:33;7.30;;;1.67;;
5052;SDS011;2545;50.892;5.740;2023-04-01T00:21:58;9.03;;;1.90;;
5052;SDS011;2545;50.892;5.740;2023-04-01T00:24:24;3.43;;;1.70;;
5052;SDS011;2545;50.892;5.740;2023-04-01T00:26:49;4.60;;;1.67;;
5052;SDS011;2545;50.892;5.740;2023-04-01T00:29:14;2.00;;;1.30;;
5052;SDS011;2545;50.892;5.740;2023-04-01T00:31:40;3.10;;;1.23;;
5052;SDS011;2545;50.892;5.740;2023-04-01T00:34:05;8.87;;;2.00;;
5052;SDS011;2545;50.892;5.740;2023-04-01T00:36:30;2.87;;;1.90;;
5052;SDS011;2545;50.892;5.740;2023-04-01T00:38:57;1.20;;;1.10;;
5052;SDS011;2545;50.892;5.740;2023-04-01T00:41:23;4.83;;;1.37;;
5052;SDS011;2545;50.892;5.740;2023-04-01T00:43:51;4.80;;;2.00;;
5052;SDS011;2545;50.892;5.740;2023-04-01T00:46:17;2.67;;;1.43;;
5052;SDS011;2545;50.892;5.740;2023-04-01T00:48:53;6.70;;;1.93;;
5052;SDS011;2545;50.892;5.740;2023-04-01T00:51:25;5.97;;;1.97;;
5052;SDS011;2545;50.892;5.740;2023-04-01T00:53:53;4.20;;;1.20;;
5052;SDS011;2545;50.892;5.740;2023-04-01T00:56:36;4.50;;;1.90;;
5052;SDS011;2545;50.892;5.740;2023-04-01T00:59:07;3.30;;;1.90;;
5052;SDS011;2545;50.892;5.740;2023-04-01T01:01:36;7.97;;;1.83;;
5052;SDS011;2545;50.892;5.740;2023-04-01T01:04:01;4.50;;;2.00;;
5052;SDS011;2545;50.892;5.740;2023-04-01T01:06:35;8.23;;;1.80;;
5052;SDS011;2545;50.892;5.740;2023-04-01T01:09:38;3.20;;;1.33;;
5052;SDS011;2545;50.892;5.740;2023-04-01T01:12:21;6.93;;;1.50;;
5052;SDS011;2545;50.892;5.740;2023-04-01T01:14:56;4.60;;;1.60;;
5052;SDS011;2545;50.892;5.740;2023-04-01T01:17:42;9.50;;;2.00;;
5052;SDS011;2545;50.892;5.740;2023-04-01T01:37:06;2.33;;;1.53;;
5052;SDS011;2545;50.892;5.740;2023-04-01T01:39:36;5.37;;;1.60;;
5052;SDS011;2545;50.892;5.740;2023-04-01T01:42:04;8.30;;;1.90;;
5052;SDS011;2545;50.892;5.740;2023-04-01T01:44:33;9.00;;;1.87;;
5052;SDS011;2545;50.892;5.740;2023-04-01T01:47:00;2.60;;;1.30;;
5052;SDS011;2545;50.892;5.740;2023-04-01T01:49:27;3.37;;;1.40;;
5052;SDS011;2545;50.892;5.740;2023-04-01T01:51:55;2.60;;;1.40;;
5052;SDS011;2545;50.892;5.740;2023-04-01T01:54:21;5.27;;;1.53;;
5052;SDS011;2545;50.892;5.740;2023-04-01T01:56:47;2.33;;;1.40;;
5052;SDS011;2545;50.892;5.740;2023-04-01T01:59:16;1.20;;;1.10;;
5052;SDS011;2545;50.892;5.740;2023-04-01T02:01:46;2.40;;;1.10;;
5052;SDS011;2545;50.892;5.740;2023-04-01T02:04:15;1.27;;;1.17;;
5052;SDS011;2545;50.892;5.740;2023-04-01T02:06:45;1.67;;;1.43;;
5052;SDS011;2545;50.892;5.740;2023-04-01T02:09:17;1.80;;;1.13;;
5052;SDS011;2545;50.892;5.740;2023-04-01T02:11:51;2.97;;;1.13;;
5052;SDS011;2545;50.892;5.740;2023-04-01T02:17:09;1.97;;;1.17;;
5052;SDS011;2545;50.892;5.740;2023-04-01T02:19:46;6.43;;;1.23;;
5052;SDS011;2545;50.892;5.740;2023-04-01T02:22:16;10.43;;;1.50;;
5052;SDS011;2545;50.892;5.740;2023-04-01T02:24:45;4.50;;;1.10;;
5052;SDS011;2545;50.892;5.740;2023-04-01T02:27:11;1.73;;;1.27;;
5052;SDS011;2545;50.892;5.740;2023-04-01T02:29:37;4.10;;;1.10;;
5052;SDS011;2545;50.892;5.740;2023-04-01T02:32:03;4.20;;;1.83;;
5052;SDS011;2545;50.892;5.740;2023-04-01T02:34:30;2.07;;;1.50;;
5052;SDS011;2545;50.892;5.740;2023-04-01T02:36:56;1.00;;;1.00;;
5052;SDS011;2545;50.892;5.740;2023-04-01T02:39:22;2.33;;;0.90;;
5052;SDS011;2545;50.892;5.740;2023-04-01T02:41:47;2.30;;;1.17;;
5052;SDS011;2545;50.892;5.740;2023-04-01T02:44:13;2.73;;;1.40;;
5052;SDS011;2545;50.892;5.740;2023-04-01T02:46:40;7.90;;;1.47;;
5052;SDS011;2545;50.892;5.740;2023-04-01T02:49:06;2.60;;;1.50;;
5052;SDS011;2545;50.892;5.740;2023-04-01T02:51:32;1.90;;;1.70;;
5052;SDS011;2545;50.892;5.740;2023-04-01T02:53:58;1.33;;;1.23;;
5052;SDS011;2545;50.892;5.740;2023-04-01T02:56:23;4.03;;;1.53;;
5052;SDS011;2545;50.892;5.740;2023-04-01T02:58:49;3.37;;;1.50;;
5052;SDS011;2545;50.892;5.740;2023-04-01T03:01:14;6.90;;;1.83;;
5052;SDS011;2545;50.892;5.740;2023-04-01T03:03:39;2.30;;;1.40;;
5052;SDS011;2545;50.892;5.740;2023-04-01T03:06:06;1.60;;;1.50;;
5052;SDS011;2545;50.892;5.740;2023-04-01T03:08:32;3.67;;;2.00;;
5052;SDS011;2545;50.892;5.740;2023-04-01T03:10:58;1.87;;;1.37;;
5052;SDS011;2545;50.892;5.740;2023-04-01T03:13:23;2.43;;;1.73;;
5052;SDS011;2545;50.892;5.740;2023-04-01T03:15:48;4.03;;;1.77;;
5052;SDS011;2545;50.892;5.740;2023-04-01T03:18:14;1.83;;;1.73;;
5052;SDS011;2545;50.892;5.740;2023-04-01T03:20:39;3.43;;;1.63;;
5052;SDS011;2545;50.892;5.740;2023-04-01T03:23:04;1.73;;;1.63;;
5052;SDS011;2545;50.892;5.740;2023-04-01T03:25:30;4.27;;;1.63;;
5052;SDS011;2545;50.892;5.740;2023-04-01T03:27:55;3.30;;;1.90;;
5052;SDS011;2545;50.892;5.740;2023-04-01T03:30:21;1.47;;;1.30;;
5052;SDS011;2545;50.892;5.740;2023-04-01T03:32:46;2.60;;;1.83;;
5052;SDS011;2545;50.892;5.740;2023-04-01T03:35:12;1.63;;;1.53;;
5052;SDS011;2545;50.892;5.740;2023-04-01T03:37:37;3.03;;;1.63;;
5052;SDS011;2545;50.892;5.740;2023-04-01T03:40:03;2.33;;;1.80;;
5052;SDS011;2545;50.892;5.740;2023-04-01T03:42:29;2.17;;;1.87;;
5052;SDS011;2545;50.892;5.740;2023-04-01T03:44:56;2.10;;;1.90;;
5052;SDS011;2545;50.892;5.740;2023-04-01T03:47:21;4.83;;;1.93;;
5052;SDS011;2545;50.892;5.740;2023-04-01T03:49:46;1.70;;;1.60;;
5052;SDS011;2545;50.892;5.740;2023-04-01T03:52:12;1.47;;;1.17;;
5052;SDS011;2545;50.892;5.740;2023-04-01T03:54:37;1.50;;;1.40;;
5052;SDS011;2545;50.892;5.740;2023-04-01T03:57:03;2.40;;;1.43;;
5052;SDS011;2545;50.892;5.740;2023-04-01T03:59:28;3.33;;;1.77;;
5052;SDS011;2545;50.892;5.740;2023-04-01T04:01:54;2.17;;;1.30;;
5052;SDS011;2545;50.892;5.740;2023-04-01T04:04:19;3.10;;;1.70;;
5052;SDS011;2545;50.892;5.740;2023-04-01T04:06:45;1.67;;;1.43;;
5052;SDS011;2545;50.892;5.740;2023-04-01T04:09:10;1.87;;;1.77;;
5052;SDS011;2545;50.892;5.740;2023-04-01T04:11:35;1.97;;;1.87;;
5052;SDS011;2545;50.892;5.740;2023-04-01T04:14:01;3.60;;;1.67;;
5052;SDS011;2545;50.892;5.740;2023-04-01T04:16:27;2.80;;;1.90;;
5052;SDS011;2545;50.892;5.740;2023-04-01T04:18:52;2.83;;;1.93;;
5052;SDS011;2545;50.892;5.740;2023-04-01T04:21:17;3.30;;;2.47;;
5052;SDS011;2545;50.892;5.740;2023-04-01T04:23:43;5.20;;;2.20;;
5052;SDS011;2545;50.892;5.740;2023-04-01T04:26:10;2.10;;;2.00;;
5052;SDS011;2545;50.892;5.740;2023-04-01T04:28:37;2.30;;;1.87;;
5052;SDS011;2545;50.892;5.740;2023-04-01T04:31:02;2.20;;;1.70;;
5052;SDS011;2545;50.892;5.740;2023-04-01T04:33:29;1.97;;;1.60;;
5052;SDS011;2545;50.892;5.740;2023-04-01T04:35:57;3.00;;;1.93;;
5052;SDS011;2545;50.892;5.740;2023-04-01T04:38:23;1.77;;;1.60;;
5052;SDS011;2545;50.892;5.740;2023-04-01T04:40:49;2.43;;;1.80;;
5052;SDS011;2545;50.892;5.740;2023-04-01T04:43:15;3.33;;;1.77;;
5052;SDS011;2545;50.892;5.740;2023-04-01T04:45:42;2.63;;;2.13;;
5052;SDS011;2545;50.892;5.740;2023-04-01T04:48:08;3.43;;;1.57;;
5052;SDS011;2545;50.892;5.740;2023-04-01T04:50:34;5.63;;;2.10;;
5052;SDS011;2545;50.892;5.740;2023-04-01T04:53:00;4.60;;;2.00;;
5052;SDS011;2545;50.892;5.740;2023-04-01T04:55:25;4.60;;;2.00;;
5052;SDS011;2545;50.892;5.740;2023-04-01T04:57:51;2.23;;;2.03;;
5052;SDS011;2545;50.892;5.740;2023-04-01T05:00:16;2.30;;;2.10;;
5052;SDS011;2545;50.892;5.740;2023-04-01T05:02:42;4.73;;;2.10;;
5052;SDS011;2545;50.892;5.740;2023-04-01T05:05:07;2.30;;;2.07;;
5052;SDS011;2545;50.892;5.740;2023-04-01T05:07:33;2.30;;;2.10;;
5052;SDS011;2545;50.892;5.740;2023-04-01T05:09:59;2.67;;;2.13;;
5052;SDS011;2545;50.892;5.740;2023-04-01T05:12:24;8.47;;;2.27;;
5052;SDS011;2545;50.892;5.740;2023-04-01T05:14:50;4.73;;;2.30;;
5052;SDS011;2545;50.892;5.740;2023-04-01T05:17:15;3.50;;;2.10;;
5052;SDS011;2545;50.892;5.740;2023-04-01T05:19:40;3.80;;;2.60;;
5052;SDS011;2545;50.892;5.740;2023-04-01T05:22:06;4.30;;;2.97;;
5052;SDS011;2545;50.892;5.740;2023-04-01T05:24:31;5.13;;;3.20;;
5052;SDS011;2545;50.892;5.740;2023-04-01T05:26:58;8.13;;;3.60;;
5052;SDS011;2545;50.892;5.740;2023-04-01T05:29:24;9.60;;;4.03;;
5052;SDS011;2545;50.892;5.740;2023-04-01T05:31:50;5.53;;;3.47;;
5052;SDS011;2545;50.892;5.740;2023-04-01T05:34:16;8.90;;;3.60;;
5052;SDS011;2545;50.892;5.740;2023-04-01T05:36:42;4.53;;;3.67;;
5052;SDS011;2545;50.892;5.740;2023-04-01T05:39:08;10.40;;;4.30;;
5052;SDS011;2545;50.892;5.740;2023-04-01T05:41:37;5.93;;;3.83;;
5052;SDS011;2545;50.892;5.740;2023-04-01T05:44:03;9.47;;;4.80;;
5052;SDS011;2545;50.892;5.740;2023-04-01T05:46:30;8.50;;;4.00;;
5052;SDS011;2545;50.892;5.740;2023-04-01T05:48:56;10.30;;;4.73;;
5052;SDS011;2545;50.892;5.740;2023-04-01T05:51:21;12.93;;;4.40;;
5052;SDS011;2545;50.892;5.740;2023-04-01T05:53:47;12.27;;;4.40;;
5052;SDS011;2545;50.892;5.740;2023-04-01T05:56:13;7.57;;;3.87;;
5052;SDS011;2545;50.892;5.740;2023-04-01T05:58:39;6.23;;;3.90;;
5052;SDS011;2545;50.892;5.740;2023-04-01T06:01:05;8.97;;;4.03;;
5052;SDS011;2545;50.892;5.740;2023-04-01T06:03:32;7.43;;;3.33;;
5052;SDS011;2545;50.892;5.740;2023-04-01T06:05:58;6.10;;;3.40;;
5052;SDS011;2545;50.892;5.740;2023-04-01T06:08:26;5.40;;;4.10;;
5052;SDS011;2545;50.892;5.740;2023-04-01T06:11:07;6.73;;;4.00;;
5052;SDS011;2545;50.892;5.740;2023-04-01T06:19:34;5.70;;;3.10;;
5052;SDS011;2545;50.892;5.740;2023-04-01T06:25:02;3.73;;;3.00;;
5052;SDS011;2545;50.892;5.740;2023-04-01T06:30:31;5.50;;;3.20;;
5052;SDS011;2545;50.892;5.740;2023-04-01T06:33:43;7.60;;;2.60;;
5052;SDS011;2545;50.892;5.740;2023-04-01T06:44:41;5.80;;;3.07;;
5052;SDS011;2545;50.892;5.740;2023-04-01T06:58:26;3.10;;;2.30;;
5052;SDS011;2545;50.892;5.740;2023-04-01T07:01:03;3.47;;;2.30;;
5052;SDS011;2545;50.892;5.740;2023-04-01T07:03:47;2.50;;;2.10;;
5052;SDS011;2545;50.892;5.740;2023-04-01T07:08:58;4.43;;;3.23;;
5052;SDS011;2545;50.892;5.740;2023-04-01T07:11:29;5.00;;;2.83;;
5052;SDS011;2545;50.892;5.740;2023-04-01T07:14:00;5.30;;;2.90;;
5052;SDS011;2545;50.892;5.740;2023-04-01T07:24:41;5.67;;;3.07;;
5052;SDS011;2545;50.892;5.740;2023-04-01T07:27:09;4.13;;;3.03;;
5052;SDS011;2545;50.892;5.740;2023-04-01T07:29:36;6.10;;;3.30;;
5052;SDS011;2545;50.892;5.740;2023-04-01T07:45:26;2.50;;;1.80;;
5052;SDS011;2545;50.892;5.740;2023-04-01T07:48:11;4.27;;;2.20;;
5052;SDS011;2545;50.892;5.740;2023-04-01T07:56:15;7.33;;;2.40;;
5052;SDS011;2545;50.892;5.740;2023-04-01T08:04:23;2.23;;;2.03;;
5052;SDS011;2545;50.892;5.740;2023-04-01T08:25:44;1.37;;;1.27;;
5052;SDS011;2545;50.892;5.740;2023-04-01T08:33:41;2.17;;;1.97;;
5052;SDS011;2545;50.892;5.740;2023-04-01T08:38:44;1.10;;;1.00;;
5052;SDS011;2545;50.892;5.740;2023-04-01T08:41:27;1.43;;;1.10;;
5052;SDS011;2545;50.892;5.740;2023-04-01T08:52:50;1.37;;;1.27;;
5052;SDS011;2545;50.892;5.740;2023-04-01T08:58:11;1.50;;;1.40;;
5052;SDS011;2545;50.892;5.740;2023-04-01T09:03:36;2.60;;;1.30;;
5052;SDS011;2545;50.892;5.740;2023-04-01T09:28:50;1.97;;;1.83;;
5052;SDS011;2545;50.892;5.740;2023-04-01T09:31:39;2.20;;;2.10;;
5052;SDS011;2545;50.892;5.740;2023-04-01T09:37:26;1.60;;;1.23;;
5052;SDS011;2545;50.892;5.740;2023-04-01T09:45:01;4.43;;;2.20;;
5052;SDS011;2545;50.892;5.740;2023-04-01T09:50:34;1.80;;;1.70;;
5052;SDS011;2545;50.892;5.740;2023-04-01T09:53:25;1.80;;;1.70;;
5052;SDS011;2545;50.892;5.740;2023-04-01T09:56:23;2.57;;;1.97;;
5052;SDS011;2545;50.892;5.740;2023-04-01T09:59:18;3.47;;;1.83;;
5052;SDS011;2545;50.892;5.740;2023-04-01T10:02:12;2.63;;;2.00;;
5052;SDS011;2545;50.892;5.740;2023-04-01T10:05:00;2.30;;;1.90;;
5052;SDS011;2545;50.892;5.740;2023-04-01T10:16:14;3.70;;;1.93;;
5052;SDS011;2545;50.892;5.740;2023-04-01T10:30:50;2.90;;;1.53;;
5052;SDS011;2545;50.892;5.740;2023-04-01T10:35:53;1.77;;;1.67;;
5052;SDS011;2545;50.892;5.740;2023-04-01T10:41:08;1.60;;;1.50;;
5052;SDS011;2545;50.892;5.740;2023-04-01T10:46:48;2.10;;;1.90;;
5052;SDS011;2545;50.892;5.740;2023-04-01T10:49:47;2.20;;;2.00;;
5052;SDS011;2545;50.892;5.740;2023-04-01T11:17:42;2.33;;;2.13;;
5052;SDS011;2545;50.892;5.740;2023-04-01T11:33:46;2.93;;;2.27;;
5052;SDS011;2545;50.892;5.740;2023-04-01T11:36:29;3.77;;;2.20;;
5052;SDS011;2545;50.892;5.740;2023-04-01T11:39:15;3.63;;;2.63;;
5052;SDS011;2545;50.892;5.740;2023-04-01T11:44:57;2.90;;;2.70;;
5052;SDS011;2545;50.892;5.740;2023-04-01T12:03:53;3.47;;;3.17;;
5052;SDS011;2545;50.892;5.740;2023-04-01T12:06:43;3.53;;;3.23;;
5052;SDS011;2545;50.892;5.740;2023-04-01T12:20:45;4.53;;;4.13;;
5052;SDS011;2545;50.892;5.740;2023-04-01T12:37:18;4.30;;;3.60;;
5052;SDS011;2545;50.892;5.740;2023-04-01T12:42:36;3.20;;;2.90;;
5052;SDS011;2545;50.892;5.740;2023-04-01T12:56:21;2.03;;;1.93;;
5052;SDS011;2545;50.892;5.740;2023-04-01T12:59:08;2.03;;;1.93;;
5052;SDS011;2545;50.892;5.740;2023-04-01T13:04:27;2.27;;;2.07;;
5052;SDS011;2545;50.892;5.740;2023-04-01T13:13:09;2.97;;;2.17;;
5052;SDS011;2545;50.892;5.740;2023-04-01T13:15:41;5.67;;;4.53;;
5052;SDS011;2545;50.892;5.740;2023-04-01T13:21:01;2.43;;;1.90;;
5052;SDS011;2545;50.892;5.740;2023-04-01T13:23:39;2.33;;;2.13;;
5052;SDS011;2545;50.892;5.740;2023-04-01T13:29:28;2.63;;;2.43;;
5052;SDS011;2545;50.892;5.740;2023-04-01T13:42:57;3.90;;;3.50;;
5052;SDS011;2545;50.892;5.740;2023-04-01T13:48:01;4.50;;;3.63;;
5052;SDS011;2545;50.892;5.740;2023-04-01T13:50:50;3.40;;;3.17;;
5052;SDS011;2545;50.892;5.740;2023-04-01T13:53:53;6.23;;;3.77;;
5052;SDS011;2545;50.892;5.740;2023-04-01T13:59:03;4.37;;;2.70;;
5052;SDS011;2545;50.892;5.740;2023-04-01T14:01:44;2.67;;;2.47;;
5052;SDS011;2545;50.892;5.740;2023-04-01T14:21:35;4.07;;;3.23;;
5052;SDS011;2545;50.892;5.740;2023-04-01T14:45:46;3.50;;;3.20;;
5052;SDS011;2545;50.892;5.740;2023-04-01T14:48:37;3.40;;;2.70;;
5052;SDS011;2545;50.892;5.740;2023-04-01T14:54:14;4.27;;;3.57;;
5052;SDS011;2545;50.892;5.740;2023-04-01T14:56:51;4.23;;;3.57;;
5052;SDS011;2545;50.892;5.740;2023-04-01T14:59:30;4.57;;;2.73;;
5052;SDS011;2545;50.892;5.740;2023-04-01T15:10:35;1.80;;;1.70;;
5052;SDS011;2545;50.892;5.740;2023-04-01T15:24:07;2.60;;;2.40;;
5052;SDS011;2545;50.892;5.740;2023-04-01T15:26:52;2.33;;;2.10;;
5052;SDS011;2545;50.892;5.740;2023-04-01T15:29:26;3.40;;;2.47;;
5052;SDS011;2545;50.892;5.740;2023-04-01T15:32:01;2.20;;;2.00;;
5052;SDS011;2545;50.892;5.740;2023-04-01T15:34:40;1.80;;;1.70;;
5052;SDS011;2545;50.892;5.740;2023-04-01T15:42:19;3.00;;;2.00;;
5052;SDS011;2545;50.892;5.740;2023-04-01T15:50:06;2.43;;;2.03;;
5052;SDS011;2545;50.892;5.740;2023-04-01T15:58:43;2.50;;;2.30;;
5052;SDS011;2545;50.892;5.740;2023-04-01T16:15:29;1.77;;;1.63;;
5052;SDS011;2545;50.892;5.740;2023-04-01T16:20:44;2.50;;;1.90;;
5052;SDS011;2545;50.892;5.740;2023-04-01T16:26:02;3.97;;;1.87;;
5052;SDS011;2545;50.892;5.740;2023-04-01T16:28:40;2.40;;;1.73;;
5052;SDS011;2545;50.892;5.740;2023-04-01T16:31:32;1.90;;;1.80;;
5052;SDS011;2545;50.892;5.740;2023-04-01T16:34:19;1.93;;;1.83;;
5052;SDS011;2545;50.892;5.740;2023-04-01T16:36:53;2.13;;;1.93;;
5052;SDS011;2545;50.892;5.740;2023-04-01T16:48:11;2.30;;;2.10;;
5052;SDS011;2545;50.892;5.740;2023-04-01T16:53:40;2.40;;;2.07;;
5052;SDS011;2545;50.892;5.740;2023-04-01T16:56:10;2.00;;;1.90;;
5052;SDS011;2545;50.892;5.740;2023-04-01T16:58:43;2.87;;;2.10;;
5052;SDS011;2545;50.892;5.740;2023-04-01T17:01:27;2.50;;;2.30;;
5052;SDS011;2545;50.892;5.740;2023-04-01T17:04:06;3.13;;;2.60;;
5052;SDS011;2545;50.892;5.740;2023-04-01T17:09:33;2.90;;;2.53;;
5052;SDS011;2545;50.892;5.740;2023-04-01T17:14:37;3.83;;;3.20;;
5052;SDS011;2545;50.892;5.740;2023-04-01T17:17:27;3.40;;;3.10;;
5052;SDS011;2545;50.892;5.740;2023-04-01T17:30:50;3.40;;;3.10;;
5052;SDS011;2545;50.892;5.740;2023-04-01T17:33:28;4.30;;;2.90;;
5052;SDS011;2545;50.892;5.740;2023-04-01T17:52:12;4.70;;;3.93;;
5052;SDS011;2545;50.892;5.740;2023-04-01T17:54:50;9.67;;;4.80;;
5052;SDS011;2545;50.892;5.740;2023-04-01T18:00:24;6.33;;;4.33;;
5052;SDS011;2545;50.892;5.740;2023-04-01T18:08:34;6.70;;;5.30;;
5052;SDS011;2545;50.892;5.740;2023-04-01T18:19:26;6.90;;;4.60;;
5052;SDS011;2545;50.892;5.740;2023-04-01T18:22:17;7.60;;;4.07;;
5052;SDS011;2545;50.892;5.740;2023-04-01T18:25:05;5.27;;;4.30;;
5052;SDS011;2545;50.892;5.740;2023-04-01T18:27:44;5.17;;;4.47;;
5052;SDS011;2545;50.892;5.740;2023-04-01T18:30:18;5.00;;;3.97;;
5052;SDS011;2545;50.892;5.740;2023-04-01T18:32:52;4.80;;;4.37;;
5052;SDS011;2545;50.892;5.740;2023-04-01T18:38:12;4.00;;;3.60;;
5052;SDS011;2545;50.892;5.740;2023-04-01T18:43:21;5.60;;;3.53;;
5052;SDS011;2545;50.892;5.740;2023-04-01T18:46:20;5.07;;;4.57;;
5052;SDS011;2545;50.892;5.740;2023-04-01T18:51:43;6.60;;;4.27;;
5052;SDS011;2545;50.892;5.740;2023-04-01T18:54:27;5.60;;;4.10;;
5052;SDS011;2545;50.892;5.740;2023-04-01T18:57:10;4.87;;;3.60;;
5052;SDS011;2545;50.892;5.740;2023-04-01T18:59:42;4.03;;;3.50;;
5052;SDS011;2545;50.892;5.740;2023-04-01T19:27:41;5.93;;;3.77;;
5052;SDS011;2545;50.892;5.740;2023-04-01T19:38:52;6.27;;;4.13;;
5052;SDS011;2545;50.892;5.740;2023-04-01T19:47:14;5.00;;;4.30;;
5052;SDS011;2545;50.892;5.740;2023-04-01T20:00:31;7.57;;;4.57;;
5052;SDS011;2545;50.892;5.740;2023-04-01T20:08:58;6.83;;;4.40;;
5052;SDS011;2545;50.892;5.740;2023-04-01T20:25:21;5.00;;;4.50;;
5052;SDS011;2545;50.892;5.740;2023-04-01T20:27:58;6.60;;;5.00;;
5052;SDS011;2545;50.892;5.740;2023-04-01T20:30:55;7.10;;;5.80;;
5052;SDS011;2545;50.892;5.740;2023-04-01T20:36:16;6.90;;;4.70;;
5052;SDS011;2545;50.892;5.740;2023-04-01T20:41:34;8.10;;;5.20;;
5052;SDS011;2545;50.892;5.740;2023-04-01T20:44:39;9.30;;;6.43;;
5052;SDS011;2545;50.892;5.740;2023-04-01T20:58:51;7.93;;;6.27;;
5052;SDS011;2545;50.892;5.740;2023-04-01T21:12:56;9.07;;;6.93;;
5052;SDS011;2545;50.892;5.740;2023-04-01T21:18:42;10.30;;;6.70;;
5052;SDS011;2545;50.892;5.740;2023-04-01T21:21:33;10.27;;;7.50;;
5052;SDS011;2545;50.892;5.740;2023-04-01T21:24:43;8.37;;;6.40;;
5052;SDS011;2545;50.892;5.740;2023-04-01T21:27:32;9.20;;;6.57;;
5052;SDS011;2545;50.892;5.740;2023-04-01T21:32:46;10.07;;;7.83;;
5052;SDS011;2545;50.892;5.740;2023-04-01T21:38:27;9.50;;;6.90;;
5052;SDS011;2545;50.892;5.740;2023-04-01T21:41:17;11.57;;;7.67;;
